createdAt,value
2023-04-01T00:00:56.905Z,9.45
2023-04-01T00:04:00.293Z,9.45
2023-04-01T00:10:54.525Z,9.40
2023-04-01T00:13:57.262Z,9.37
2023-04-01T00:16:59.916Z,9.36
2023-04-01T00:24:08.730Z,9.32
2023-04-01T00:27:11.422Z,9.31
2023-04-01T00:30:14.527Z,9.31
2023-04-01T00:33:17.817Z,9.29
2023-04-01T00:36:25.461Z,9.29
2023-04-01T00:39:32.377Z,9.32
2023-04-01T00:42:35.115Z,9.29
2023-04-01T00:45:41.638Z,9.28
2023-04-01T00:48:54.930Z,9.30
2023-04-01T00:52:00.904Z,9.30
2023-04-01T00:59:01.563Z,9.28
2023-04-01T01:02:08.281Z,9.28
2023-04-01T01:05:17.010Z,9.29
2023-04-01T01:08:45.973Z,9.28
2023-04-01T01:11:53.862Z,9.25
2023-04-01T01:15:23.866Z,9.28
2023-04-01T01:18:52.447Z,9.30
2023-04-01T01:22:44.702Z,9.24
2023-04-01T01:26:09.618Z,9.21
2023-04-01T01:29:21.488Z,9.25
2023-04-01T01:32:53.764Z,9.20
2023-04-01T01:36:00.891Z,9.18
2023-04-01T01:39:07.370Z,9.16
2023-04-01T01:42:14.658Z,9.19
2023-04-01T01:45:22.970Z,9.18
2023-04-01T01:48:27.695Z,9.14
2023-04-01T01:51:31.037Z,9.14
2023-04-01T01:54:33.764Z,9.10
2023-04-01T01:57:40.349Z,9.08
2023-04-01T02:00:47.148Z,9.07
2023-04-01T02:03:52.021Z,9.06
2023-04-01T02:10:56.737Z,9.05
2023-04-01T02:14:06.670Z,9.06
2023-04-01T02:17:17.029Z,9.04
2023-04-01T02:20:25.096Z,9.00
2023-04-01T02:23:28.997Z,9.02
2023-04-01T02:26:31.952Z,9.02
2023-04-01T02:29:42.992Z,9.01
2023-04-01T02:32:47.719Z,8.97
2023-04-01T02:35:51.340Z,8.98
2023-04-01T02:38:57.501Z,8.99
2023-04-01T02:42:01.406Z,9.00
2023-04-01T02:45:20.159Z,8.98
2023-04-01T02:48:23.016Z,8.98
2023-04-01T02:51:26.838Z,8.98
2023-04-01T02:54:29.550Z,8.98
2023-04-01T02:57:32.414Z,8.96
2023-04-01T03:00:35.505Z,8.94
2023-04-01T03:03:38.307Z,8.91
2023-04-01T03:06:41.095Z,8.84
2023-04-01T03:09:59.983Z,8.80
2023-04-01T03:13:02.856Z,8.81
2023-04-01T03:16:06.057Z,8.85
2023-04-01T03:19:08.927Z,8.85
2023-04-01T03:22:12.654Z,8.81
2023-04-01T03:25:15.665Z,8.86
2023-04-01T03:28:18.298Z,8.90
2023-04-01T03:31:22.470Z,8.87
2023-04-01T03:34:27.171Z,8.83
2023-04-01T03:37:44.750Z,8.78
2023-04-01T03:40:47.545Z,8.74
2023-04-01T03:43:50.314Z,8.76
2023-04-01T03:46:52.910Z,8.73
2023-04-01T03:49:55.699Z,8.76
2023-04-01T03:52:58.385Z,8.76
2023-04-01T03:56:06.432Z,8.74
2023-04-01T03:59:09.635Z,8.72
2023-04-01T04:02:12.414Z,8.71
2023-04-01T04:09:09.238Z,8.73
2023-04-01T04:12:11.934Z,8.70
2023-04-01T04:15:14.621Z,8.73
2023-04-01T04:18:17.208Z,8.76
2023-04-01T04:21:19.953Z,8.75
2023-04-01T04:24:25.973Z,8.70
2023-04-01T04:27:28.598Z,8.68
2023-04-01T04:30:31.249Z,8.66
2023-04-01T04:33:35.405Z,8.64
2023-04-01T04:36:38.082Z,8.66
2023-04-01T04:39:40.612Z,8.70
2023-04-01T04:42:43.164Z,8.71
2023-04-01T04:46:23.552Z,8.74
2023-04-01T04:49:26.509Z,8.69
2023-04-01T04:52:29.126Z,8.69
2023-04-01T04:55:32.059Z,8.69
2023-04-01T04:58:35.050Z,8.74
2023-04-01T05:01:37.896Z,8.77
2023-04-01T05:04:40.607Z,8.80
2023-04-01T05:07:43.216Z,8.80
2023-04-01T05:10:46.094Z,8.80
2023-04-01T05:13:49.345Z,8.81
2023-04-01T05:16:52.140Z,8.79
2023-04-01T05:19:55.763Z,8.78
2023-04-01T05:23:00.543Z,8.78
2023-04-01T05:26:07.709Z,8.76
2023-04-01T05:33:04.417Z,8.87
2023-04-01T05:36:12.448Z,8.87
2023-04-01T05:39:15.486Z,8.81
2023-04-01T05:46:24.459Z,8.82
2023-04-01T05:49:28.829Z,8.79
2023-04-01T05:52:31.760Z,8.78
2023-04-01T05:55:37.015Z,8.83
2023-04-01T05:58:40.078Z,8.89
2023-04-01T06:01:42.963Z,8.92
2023-04-01T06:04:46.336Z,8.92
2023-04-01T06:07:49.602Z,8.94
2023-04-01T06:11:00.815Z,8.91
2023-04-01T06:14:40.744Z,8.94
2023-04-01T06:18:37.811Z,8.96
2023-04-01T06:22:11.296Z,8.95
2023-04-01T06:25:35.454Z,8.91
2023-04-01T06:28:50.300Z,8.93
2023-04-01T06:32:23.995Z,8.97
2023-04-01T06:35:45.721Z,8.99
2023-04-01T06:39:26.412Z,9.00
2023-04-01T06:43:02.540Z,9.01
2023-04-01T06:46:25.219Z,9.06
2023-04-01T06:49:45.866Z,9.09
2023-04-01T06:53:04.945Z,9.15
2023-04-01T06:56:15.166Z,9.17
2023-04-01T06:59:28.239Z,9.16
2023-04-01T07:02:47.081Z,9.11
2023-04-01T07:05:50.229Z,9.14
2023-04-01T07:08:55.780Z,9.17
2023-04-01T07:12:03.811Z,9.22
2023-04-01T07:15:30.614Z,9.27
2023-04-01T07:18:40.188Z,9.26
2023-04-01T07:25:44.655Z,9.30
2023-04-01T07:28:47.804Z,9.30
2023-04-01T07:32:43.633Z,9.29
2023-04-01T07:35:58.384Z,9.33
2023-04-01T07:39:26.155Z,9.26
2023-04-01T07:42:44.979Z,9.28
2023-04-01T07:46:06.211Z,9.27
2023-04-01T07:49:23.370Z,9.31
2023-04-01T07:52:53.097Z,9.31
2023-04-01T07:55:55.710Z,9.35
2023-04-01T07:59:28.248Z,9.34
2023-04-01T08:03:13.167Z,9.35
2023-04-01T08:06:48.113Z,9.37
2023-04-01T08:14:09.687Z,9.52
2023-04-01T08:17:29.423Z,9.53
2023-04-01T08:20:56.258Z,9.58
2023-04-01T08:24:07.442Z,9.61
2023-04-01T08:27:30.563Z,9.62
2023-04-01T08:30:57.656Z,9.57
2023-04-01T08:34:03.907Z,9.55
2023-04-01T08:37:13.592Z,9.59
2023-04-01T08:40:54.031Z,9.58
2023-04-01T08:44:14.695Z,9.60
2023-04-01T08:47:20.618Z,9.61
2023-04-01T08:50:40.726Z,9.62
2023-04-01T08:54:14.508Z,9.72
2023-04-01T08:57:51.768Z,9.77
2023-04-01T09:01:03.901Z,9.78
2023-04-01T09:04:27.885Z,9.86
2023-04-01T09:07:36.505Z,9.92
2023-04-01T09:11:01.006Z,9.94
2023-04-01T09:14:27.025Z,10.03
2023-04-01T09:17:56.602Z,10.12
2023-04-01T09:21:25.732Z,10.19
2023-04-01T09:24:59.057Z,10.25
2023-04-01T09:32:16.586Z,10.30
2023-04-01T09:35:19.195Z,10.22
2023-04-01T09:38:31.608Z,10.27
2023-04-01T09:42:02.766Z,10.26
2023-04-01T09:45:29.889Z,10.21
2023-04-01T09:48:49.847Z,10.18
2023-04-01T09:56:21.500Z,10.30
2023-04-01T10:03:52.890Z,10.61
2023-04-01T10:07:09.427Z,10.66
2023-04-01T10:14:06.044Z,10.52
2023-04-01T10:17:37.050Z,10.46
2023-04-01T10:20:44.888Z,10.36
2023-04-01T10:24:18.555Z,10.30
2023-04-01T10:27:52.083Z,10.22
2023-04-01T10:31:14.425Z,10.25
2023-04-01T10:34:40.517Z,10.34
2023-04-01T10:38:01.613Z,10.32
2023-04-01T10:41:16.750Z,10.27
2023-04-01T10:44:46.830Z,10.39
2023-04-01T10:48:24.581Z,10.58
2023-04-01T10:51:44.804Z,10.73
2023-04-01T10:55:00.248Z,10.83
2023-04-01T10:58:24.225Z,10.82
2023-04-01T11:02:11.287Z,10.82
2023-04-01T11:05:35.985Z,10.92
2023-04-01T11:09:07.217Z,10.98
2023-04-01T11:12:38.745Z,10.99
2023-04-01T11:16:06.698Z,11.03
2023-04-01T11:19:31.121Z,11.08
2023-04-01T11:27:11.070Z,11.16
2023-04-01T11:30:56.643Z,11.14
2023-04-01T11:34:33.298Z,11.02
2023-04-01T11:37:56.353Z,10.97
2023-04-01T11:41:20.764Z,11.05
2023-04-01T11:48:26.264Z,11.39
2023-04-01T11:51:31.864Z,11.50
2023-04-01T11:55:18.943Z,11.63
2023-04-01T11:58:43.689Z,11.76
2023-04-01T12:02:11.439Z,11.85
2023-04-01T12:05:29.474Z,11.86
2023-04-01T12:08:55.040Z,11.81
2023-04-01T12:12:54.098Z,11.76
2023-04-01T12:16:23.394Z,11.72
2023-04-01T12:19:36.847Z,11.69
2023-04-01T12:23:11.252Z,11.66
2023-04-01T12:26:49.000Z,11.65
2023-04-01T12:30:18.303Z,11.66
2023-04-01T12:33:26.746Z,11.70
2023-04-01T12:36:41.481Z,11.70
2023-04-01T12:40:22.635Z,11.70
2023-04-01T12:43:44.002Z,11.69
2023-04-01T12:47:01.426Z,11.67
2023-04-01T12:50:21.100Z,11.63
2023-04-01T12:53:40.696Z,11.60
2023-04-01T12:56:54.080Z,11.61
2023-04-01T13:00:23.416Z,11.61
2023-04-01T13:03:44.615Z,11.59
2023-04-01T13:10:54.095Z,11.53
2023-04-01T13:14:30.803Z,11.51
2023-04-01T13:17:59.163Z,11.48
2023-04-01T13:21:34.517Z,11.45
2023-04-01T13:25:27.055Z,11.43
2023-04-01T13:28:39.382Z,11.41
2023-04-01T13:32:05.727Z,11.40
2023-04-01T13:35:20.807Z,11.39
2023-04-01T13:38:44.836Z,11.39
2023-04-01T13:46:04.348Z,11.35
2023-04-01T13:49:26.089Z,11.34
2023-04-01T13:52:43.841Z,11.36
2023-04-01T13:55:46.828Z,11.35
2023-04-01T13:59:04.598Z,11.30
2023-04-01T14:02:40.617Z,11.21
2023-04-01T14:06:05.066Z,11.13
2023-04-01T14:09:20.413Z,11.09
2023-04-01T14:12:55.718Z,11.03
2023-04-01T14:16:15.579Z,10.98
2023-04-01T14:19:37.122Z,10.96
2023-04-01T14:23:09.368Z,10.92
2023-04-01T14:26:46.508Z,10.87
2023-04-01T14:30:18.775Z,10.85
2023-04-01T14:33:35.517Z,10.87
2023-04-01T14:37:14.142Z,10.89
2023-04-01T14:40:53.919Z,10.88
2023-04-01T14:44:30.072Z,10.86
2023-04-01T14:47:49.626Z,10.88
2023-04-01T14:50:55.741Z,10.89
2023-04-01T14:54:34.595Z,10.89
2023-04-01T14:57:37.343Z,10.88
2023-04-01T15:01:19.128Z,10.89
2023-04-01T15:11:36.334Z,10.81
2023-04-01T15:14:41.810Z,10.79
2023-04-01T15:18:08.381Z,10.76
2023-04-01T15:21:32.397Z,10.74
2023-04-01T15:25:02.981Z,10.76
2023-04-01T15:28:17.349Z,10.76
2023-04-01T15:31:44.834Z,10.73
2023-04-01T15:35:02.826Z,10.71
2023-04-01T15:38:46.661Z,10.72
2023-04-01T15:42:35.345Z,10.70
2023-04-01T15:45:48.497Z,10.66
2023-04-01T15:49:20.470Z,10.65
2023-04-01T15:52:36.498Z,10.64
2023-04-01T15:55:43.491Z,10.63
2023-04-01T15:59:11.373Z,10.62
2023-04-01T16:02:22.002Z,10.59
2023-04-01T16:05:49.060Z,10.59
2023-04-01T16:09:03.981Z,10.57
2023-04-01T16:12:39.895Z,10.54
2023-04-01T16:16:08.686Z,10.50
2023-04-01T16:19:25.503Z,10.48
2023-04-01T16:22:33.696Z,10.46
2023-04-01T16:25:50.295Z,10.43
2023-04-01T16:29:09.324Z,10.41
2023-04-01T16:32:28.816Z,10.41
2023-04-01T16:35:47.922Z,10.39
2023-04-01T16:39:15.025Z,10.34
2023-04-01T16:42:21.628Z,10.32
2023-04-01T16:45:34.811Z,10.34
2023-04-01T16:48:59.117Z,10.32
2023-04-01T16:52:04.402Z,10.29
2023-04-01T16:55:19.369Z,10.25
2023-04-01T16:58:27.573Z,10.24
2023-04-01T17:01:43.797Z,10.21
2023-04-01T17:04:59.632Z,10.18
2023-04-01T17:08:24.960Z,10.15
2023-04-01T17:11:37.959Z,10.15
2023-04-01T17:14:43.236Z,10.12
2023-04-01T17:18:07.267Z,10.09
2023-04-01T17:21:47.586Z,10.05
2023-04-01T17:25:04.967Z,10.02
2023-04-01T17:28:37.314Z,9.99
2023-04-01T17:31:58.678Z,9.97
2023-04-01T17:35:17.792Z,9.94
2023-04-01T17:38:51.242Z,9.93
2023-04-01T17:42:17.465Z,9.92
2023-04-01T17:45:28.632Z,9.91
2023-04-01T17:48:51.653Z,9.89
2023-04-01T17:52:19.653Z,9.87
2023-04-01T17:55:54.406Z,9.86
2023-04-01T17:59:19.894Z,9.83
2023-04-01T18:02:56.984Z,9.82
2023-04-01T18:06:21.057Z,9.84
2023-04-01T18:09:49.817Z,9.84
2023-04-01T18:13:02.582Z,9.80
2023-04-01T18:16:42.812Z,9.80
2023-04-01T18:19:54.611Z,9.77
2023-04-01T18:23:32.264Z,9.74
2023-04-01T18:26:38.652Z,9.70
2023-04-01T18:29:50.655Z,9.68
2023-04-01T18:33:32.992Z,9.68
2023-04-01T18:36:47.539Z,9.66
2023-04-01T18:39:55.779Z,9.63
2023-04-01T18:43:30.845Z,9.62
2023-04-01T18:47:04.081Z,9.59
2023-04-01T18:50:43.018Z,9.55
2023-04-01T18:54:00.175Z,9.50
2023-04-01T18:57:13.828Z,9.50
2023-04-01T19:00:23.782Z,9.51
2023-04-01T19:03:40.024Z,9.50
2023-04-01T19:06:53.643Z,9.48
2023-04-01T19:10:02.298Z,9.46
2023-04-01T19:13:23.826Z,9.46
2023-04-01T19:16:51.479Z,9.45
2023-04-01T19:20:10.619Z,9.39
2023-04-01T19:23:13.229Z,9.33
2023-04-01T19:26:47.353Z,9.25
2023-04-01T19:30:18.352Z,9.23
2023-04-01T19:33:32.281Z,9.22
2023-04-01T19:36:56.081Z,9.20
2023-04-01T19:40:19.354Z,9.13
2023-04-01T19:43:43.372Z,9.11
2023-04-01T19:47:12.603Z,9.08
2023-04-01T19:50:36.872Z,9.01
2023-04-01T19:54:00.800Z,8.95
2023-04-01T19:57:26.794Z,8.90
2023-04-01T20:00:45.529Z,8.90
2023-04-01T20:04:05.858Z,8.89
2023-04-01T20:07:22.236Z,8.88
2023-04-01T20:10:43.422Z,8.82
2023-04-01T20:14:09.736Z,8.74
2023-04-01T20:17:20.505Z,8.71
2023-04-01T20:20:27.697Z,8.71
2023-04-01T20:23:44.898Z,8.69
2023-04-01T20:27:00.238Z,8.65
2023-04-01T20:30:22.741Z,8.63
2023-04-01T20:34:08.350Z,8.62
2023-04-01T20:37:36.893Z,8.59
2023-04-01T20:40:45.534Z,8.55
2023-04-01T20:43:48.018Z,8.52
2023-04-01T20:47:02.688Z,8.44
2023-04-01T20:50:28.143Z,8.44
2023-04-01T20:53:38.188Z,8.41
2023-04-01T20:57:05.934Z,8.39
2023-04-01T21:00:45.786Z,8.36
2023-04-01T21:03:57.203Z,8.30
2023-04-01T21:07:22.140Z,8.23
2023-04-01T21:10:38.294Z,8.21
2023-04-01T21:13:44.044Z,8.20
2023-04-01T21:17:08.203Z,8.14
2023-04-01T21:20:47.540Z,8.10
2023-04-01T21:24:08.813Z,8.07
2023-04-01T21:27:25.622Z,8.03
2023-04-01T21:30:38.891Z,8.00
2023-04-01T21:34:03.768Z,8.00
2023-04-01T21:37:37.970Z,7.97
2023-04-01T21:41:03.365Z,7.91
2023-04-01T21:44:40.493Z,7.85
2023-04-01T21:48:20.501Z,7.84
2023-04-01T21:51:36.540Z,7.81
2023-04-01T21:54:59.619Z,7.78
2023-04-01T21:58:27.034Z,7.79
2023-04-01T22:02:04.716Z,7.77
2023-04-01T22:05:16.543Z,7.76
2023-04-01T22:08:31.619Z,7.72
2023-04-01T22:11:54.609Z,7.71
2023-04-01T22:15:19.058Z,7.71
2023-04-01T22:18:31.195Z,7.69
2023-04-01T22:21:53.227Z,7.63
2023-04-01T22:25:23.679Z,7.64
2023-04-01T22:28:52.308Z,7.64
2023-04-01T22:32:10.053Z,7.62
2023-04-01T22:35:29.119Z,7.58
2023-04-01T22:38:56.980Z,7.57
2023-04-01T22:42:23.546Z,7.58
2023-04-01T22:45:35.673Z,7.57
2023-04-01T22:48:49.100Z,7.55
2023-04-01T22:52:19.575Z,7.53
2023-04-01T22:55:31.004Z,7.53
2023-04-01T22:58:43.586Z,7.50
2023-04-01T23:01:55.446Z,7.46
2023-04-01T23:05:02.906Z,7.44
2023-04-01T23:08:43.478Z,7.40
2023-04-01T23:12:06.514Z,7.32
2023-04-01T23:15:15.482Z,7.28
2023-04-01T23:18:37.719Z,7.23
2023-04-01T23:21:55.469Z,7.20
2023-04-01T23:25:34.331Z,7.14
2023-04-01T23:28:44.554Z,7.12
2023-04-01T23:31:49.209Z,7.10
2023-04-01T23:35:00.859Z,7.03
2023-04-01T23:38:03.549Z,7.02
2023-04-01T23:41:07.302Z,7.01
2023-04-01T23:44:15.441Z,7.02
2023-04-01T23:47:42.060Z,6.99
2023-04-01T23:50:46.518Z,6.96
2023-04-01T23:54:16.343Z,6.95
2023-04-01T23:57:24.056Z,6.91
